createdAt,value
2019-04-16T00:00:21.420Z,0
2019-04-16T00:01:19.982Z,0
2019-04-16T00:02:19.393Z,0
2019-04-16T00:03:17.315Z,0
2019-04-16T00:04:15.967Z,0
2019-04-16T00:05:14.653Z,0
2019-04-16T00:06:13.300Z,0
2019-04-16T00:07:11.899Z,0
2019-04-16T00:08:26.430Z,0
2019-04-16T00:09:09.052Z,0
2019-04-16T00:10:07.617Z,0
2019-04-16T00:11:06.306Z,0
2019-04-16T00:12:04.779Z,0
2019-04-16T00:13:03.519Z,0
2019-04-16T00:14:03.380Z,0
2019-04-16T00:15:00.621Z,0
2019-04-16T00:15:59.246Z,0
2019-04-16T00:16:58.066Z,0
2019-04-16T00:17:56.571Z,0
2019-04-16T00:18:57.491Z,0
2019-04-16T00:19:53.879Z,0
2019-04-16T00:20:52.348Z,0
2019-04-16T00:21:50.961Z,0
2019-04-16T00:22:49.605Z,0
2019-04-16T00:23:48.283Z,0
2019-04-16T00:24:46.968Z,0
2019-04-16T00:25:45.582Z,0
2019-04-16T00:26:44.160Z,0
2019-04-16T00:27:42.781Z,0
2019-04-16T00:28:41.330Z,0
2019-04-16T00:29:40.001Z,0
2019-04-16T00:30:38.455Z,0
2019-04-16T00:31:37.725Z,0
2019-04-16T00:32:37.956Z,0
2019-04-16T00:33:34.339Z,0
2019-04-16T00:34:33.040Z,0
2019-04-16T00:35:31.603Z,0
2019-04-16T00:36:30.156Z,0
2019-04-16T00:37:28.917Z,0
2019-04-16T00:38:39.948Z,0
2019-04-16T00:39:26.022Z,0
2019-04-16T00:40:26.558Z,0
2019-04-16T00:41:23.127Z,0
2019-04-16T00:42:21.668Z,0
2019-04-16T00:43:20.204Z,0
2019-04-16T00:44:19.313Z,0
2019-04-16T00:45:17.887Z,0
2019-04-16T00:46:16.462Z,0
2019-04-16T00:47:15.083Z,0
2019-04-16T00:48:13.657Z,0
2019-04-16T00:49:12.248Z,0
2019-04-16T00:50:10.821Z,0
2019-04-16T00:51:09.549Z,0
2019-04-16T00:52:08.309Z,0
2019-04-16T00:53:08.039Z,0
2019-04-16T00:54:09.646Z,0
2019-04-16T00:55:04.136Z,0
2019-04-16T00:56:02.842Z,0
2019-04-16T00:57:01.381Z,0
2019-04-16T00:58:00.075Z,0
2019-04-16T00:58:58.462Z,0
2019-04-16T00:59:57.298Z,0
2019-04-16T01:00:55.953Z,0
2019-04-16T01:01:54.494Z,0
2019-04-16T01:02:53.301Z,0
2019-04-16T01:03:51.845Z,0
2019-04-16T01:04:50.411Z,0
2019-04-16T01:05:48.988Z,0
2019-04-16T01:06:47.608Z,0
2019-04-16T01:07:46.181Z,0
2019-04-16T01:08:54.232Z,0
2019-04-16T01:09:43.530Z,0
2019-04-16T01:10:42.098Z,0
2019-04-16T01:11:40.927Z,0
2019-04-16T01:12:39.476Z,0
2019-04-16T01:13:38.042Z,0
2019-04-16T01:14:36.564Z,0
2019-04-16T01:15:35.131Z,0
2019-04-16T01:16:33.655Z,0
2019-04-16T01:17:33.335Z,0
2019-04-16T01:18:30.815Z,0
2019-04-16T01:19:29.376Z,0
2019-04-16T01:20:27.919Z,0
2019-04-16T01:21:26.570Z,0
2019-04-16T01:22:25.251Z,0
2019-04-16T01:23:23.804Z,0
2019-04-16T01:24:22.387Z,0
2019-04-16T01:25:23.196Z,0
2019-04-16T01:26:19.770Z,0
2019-04-16T01:27:18.332Z,0
2019-04-16T01:28:16.851Z,0
2019-04-16T01:29:15.442Z,0
2019-04-16T01:30:14.128Z,0
2019-04-16T01:31:12.963Z,0
2019-04-16T01:32:12.095Z,0
2019-04-16T01:33:14.204Z,0
2019-04-16T01:34:08.759Z,0
2019-04-16T01:35:07.390Z,0
2019-04-16T01:36:06.004Z,0
2019-04-16T01:37:04.549Z,0
2019-04-16T01:38:03.136Z,0
2019-04-16T01:39:14.044Z,0
2019-04-16T01:40:00.312Z,0
2019-04-16T01:40:59.053Z,0
2019-04-16T01:41:57.624Z,0
2019-04-16T01:42:56.156Z,0
2019-04-16T01:43:57.079Z,0
2019-04-16T01:44:53.599Z,0
2019-04-16T01:45:52.133Z,0
2019-04-16T01:46:50.709Z,0
2019-04-16T01:47:49.315Z,0
2019-04-16T01:48:47.860Z,0
2019-04-16T01:49:46.464Z,0
2019-04-16T01:50:45.203Z,0
2019-04-16T01:51:44.537Z,0
2019-04-16T01:52:42.256Z,0
2019-04-16T01:53:40.846Z,0
2019-04-16T01:54:39.524Z,0
2019-04-16T01:55:38.028Z,0
2019-04-16T01:56:36.651Z,0
2019-04-16T01:57:35.238Z,0
2019-04-16T01:58:34.595Z,0
2019-04-16T01:59:35.550Z,0
2019-04-16T02:00:30.911Z,0
2019-04-16T02:01:29.468Z,0
2019-04-16T02:02:28.024Z,0
2019-04-16T02:03:26.632Z,0
2019-04-16T02:04:25.311Z,0
2019-04-16T02:05:23.956Z,0
2019-04-16T02:06:25.578Z,0
2019-04-16T02:07:21.434Z,0
2019-04-16T02:09:56.363Z,0
2019-04-16T02:10:54.976Z,0
2019-04-16T02:11:53.537Z,0
2019-04-16T02:12:52.093Z,0
2019-04-16T02:13:50.646Z,0
2019-04-16T02:14:50.260Z,0
2019-04-16T02:15:47.747Z,0
2019-04-16T02:16:46.297Z,0
2019-04-16T02:17:45.328Z,0
2019-04-16T02:18:43.895Z,0
2019-04-16T02:19:42.619Z,0
2019-04-16T02:20:41.151Z,0
2019-04-16T02:21:41.418Z,0
2019-04-16T02:22:38.338Z,0
2019-04-16T02:23:37.114Z,0
2019-04-16T02:24:35.762Z,0
2019-04-16T02:25:34.389Z,0
2019-04-16T02:26:33.249Z,0
2019-04-16T02:27:31.781Z,0
2019-04-16T02:28:30.339Z,0
2019-04-16T02:29:30.464Z,0
2019-04-16T02:30:27.438Z,0
2019-04-16T02:31:26.011Z,0
2019-04-16T02:32:24.561Z,0
2019-04-16T02:33:23.126Z,0
2019-04-16T02:34:21.896Z,0
2019-04-16T02:35:20.535Z,0
2019-04-16T02:36:19.373Z,0
2019-04-16T02:37:17.905Z,0
2019-04-16T02:38:16.472Z,0
2019-04-16T02:39:15.029Z,0
2019-04-16T02:40:18.251Z,0
2019-04-16T02:41:12.123Z,0
2019-04-16T02:42:10.953Z,0
2019-04-16T02:43:09.555Z,0
2019-04-16T02:44:13.958Z,0
2019-04-16T02:45:06.908Z,0
2019-04-16T02:46:05.473Z,0
2019-04-16T02:47:06.034Z,0
2019-04-16T02:48:02.723Z,0
2019-04-16T02:49:01.211Z,0
2019-04-16T02:49:59.753Z,0
2019-04-16T02:51:05.042Z,0
2019-04-16T02:51:57.271Z,0
2019-04-16T02:52:55.855Z,0
2019-04-16T02:53:58.166Z,0
2019-04-16T02:54:53.155Z,0
2019-04-16T02:55:51.710Z,0
2019-04-16T02:56:51.975Z,0
2019-04-16T02:57:48.821Z,0
2019-04-16T02:58:47.395Z,0
2019-04-16T02:59:47.433Z,0
2019-04-16T03:00:48.848Z,0
2019-04-16T03:01:43.074Z,0
2019-04-16T03:02:41.743Z,0
2019-04-16T03:03:40.364Z,0
2019-04-16T03:04:38.969Z,0
2019-04-16T03:05:37.622Z,0
2019-04-16T03:06:36.250Z,0
2019-04-16T03:07:34.889Z,0
2019-04-16T03:08:36.010Z,0
2019-04-16T03:09:32.139Z,0
2019-04-16T03:10:30.891Z,0
2019-04-16T03:11:29.533Z,0
2019-04-16T03:12:28.076Z,0
2019-04-16T03:13:26.742Z,0
2019-04-16T03:14:29.685Z,0
2019-04-16T03:15:23.865Z,0
2019-04-16T03:16:22.521Z,0
2019-04-16T03:17:21.093Z,0
2019-04-16T03:18:19.735Z,0
2019-04-16T03:19:20.016Z,0
2019-04-16T03:20:17.023Z,0
2019-04-16T03:21:15.604Z,0
2019-04-16T03:22:14.191Z,0
2019-04-16T03:23:13.009Z,0
2019-04-16T03:24:11.493Z,0
2019-04-16T03:25:13.529Z,0
2019-04-16T03:26:08.898Z,0
2019-04-16T03:27:07.821Z,0
2019-04-16T03:28:06.387Z,0
2019-04-16T03:29:05.165Z,0
2019-04-16T03:30:05.855Z,0
2019-04-16T03:31:07.053Z,0
2019-04-16T03:32:00.866Z,0
2019-04-16T03:32:59.537Z,0
2019-04-16T03:33:58.122Z,0
2019-04-16T03:34:56.757Z,0
2019-04-16T03:35:57.777Z,0
2019-04-16T03:36:54.039Z,0
2019-04-16T03:37:52.683Z,0
2019-04-16T03:38:51.334Z,0
2019-04-16T03:39:50.261Z,0
2019-04-16T03:40:49.014Z,0
2019-04-16T03:41:47.594Z,0
2019-04-16T03:42:46.145Z,0
2019-04-16T03:43:44.774Z,0
2019-04-16T03:44:43.339Z,0
2019-04-16T03:45:41.887Z,0
2019-04-16T03:46:45.941Z,0
2019-04-16T03:47:39.074Z,0
2019-04-16T03:48:37.662Z,0
2019-04-16T03:49:36.229Z,0
2019-04-16T03:50:34.859Z,0
2019-04-16T03:51:35.407Z,0
2019-04-16T03:52:32.190Z,0
2019-04-16T03:53:30.740Z,0
2019-04-16T03:54:29.305Z,0
2019-04-16T03:55:27.883Z,0
2019-04-16T03:56:27.479Z,0
2019-04-16T03:57:25.084Z,0
2019-04-16T03:58:23.666Z,0
2019-04-16T03:59:22.239Z,0
2019-04-16T04:00:20.770Z,0
2019-04-16T04:01:19.314Z,4
2019-04-16T04:02:21.699Z,0
2019-04-16T04:03:16.673Z,0
2019-04-16T04:04:15.120Z,4
2019-04-16T04:05:13.789Z,0
2019-04-16T04:06:12.566Z,4
2019-04-16T04:08:53.241Z,4
2019-04-16T04:09:51.537Z,4
2019-04-16T04:10:49.931Z,4
2019-04-16T04:11:48.500Z,8
2019-04-16T04:12:47.277Z,12
2019-04-16T04:13:49.644Z,12
2019-04-16T04:14:44.572Z,16
2019-04-16T04:15:43.148Z,16
2019-04-16T04:16:41.702Z,20
2019-04-16T04:17:40.292Z,20
2019-04-16T04:18:42.850Z,24
2019-04-16T04:19:37.451Z,28
2019-04-16T04:20:36.016Z,32
2019-04-16T04:21:34.596Z,40
2019-04-16T04:22:33.172Z,44
2019-04-16T04:24:55.949Z,64
2019-04-16T04:25:54.643Z,72
2019-04-16T04:28:19.598Z,100
2019-04-16T04:38:15.866Z,280
2019-04-16T04:39:15.372Z,308
2019-04-16T04:40:15.815Z,332
2019-04-16T04:41:11.775Z,360
2019-04-16T04:42:10.328Z,392
2019-04-16T04:43:08.917Z,416
2019-04-16T04:44:07.735Z,452
2019-04-16T04:45:08.727Z,488
2019-04-16T04:46:04.909Z,524
2019-04-16T04:47:03.525Z,560
2019-04-16T04:48:02.088Z,600
2019-04-16T04:49:00.825Z,640
2019-04-16T04:50:03.288Z,684
2019-04-16T04:50:58.120Z,724
2019-04-16T04:51:56.679Z,772
2019-04-16T04:52:55.357Z,820
2019-04-16T04:53:53.951Z,864
2019-04-16T04:54:54.085Z,908
2019-04-16T04:55:51.401Z,960
2019-04-16T04:56:49.960Z,1012
2019-04-16T04:57:48.488Z,1064
2019-04-16T04:58:47.046Z,1116
2019-04-16T04:59:45.633Z,1168
2019-04-16T05:00:44.364Z,1216
2019-04-16T05:01:43.035Z,1264
2019-04-16T05:04:23.224Z,1396
2019-04-16T05:05:25.534Z,1448
2019-04-16T05:06:20.504Z,1492
2019-04-16T05:07:18.977Z,1540
2019-04-16T05:08:17.509Z,1588
2019-04-16T05:09:16.079Z,1636
2019-04-16T05:10:14.705Z,1688
2019-04-16T05:11:15.444Z,1740
2019-04-16T05:12:11.945Z,1792
2019-04-16T05:13:10.663Z,1840
2019-04-16T05:14:09.335Z,1888
2019-04-16T05:15:07.948Z,1948
2019-04-16T05:16:07.072Z,2008
2019-04-16T05:17:06.399Z,2068
2019-04-16T05:18:05.747Z,2128
2019-04-16T05:19:02.882Z,2204
2019-04-16T05:28:44.258Z,2616
2019-04-16T05:29:38.156Z,2652
2019-04-16T05:30:36.766Z,2696
2019-04-16T05:31:35.404Z,2744
2019-04-16T05:32:34.224Z,2800
2019-04-16T05:33:34.434Z,2876
2019-04-16T05:34:31.347Z,2956
2019-04-16T05:35:29.940Z,3024
2019-04-16T05:36:28.522Z,3056
2019-04-16T05:37:27.269Z,3048
2019-04-16T05:38:25.946Z,3040
2019-04-16T05:39:28.103Z,3060
2019-04-16T05:40:23.310Z,3120
2019-04-16T05:41:22.742Z,3168
2019-04-16T05:42:22.362Z,3204
2019-04-16T05:43:22.133Z,3260
2019-04-16T05:44:18.233Z,3348
2019-04-16T05:45:16.852Z,3388
2019-04-16T05:46:15.493Z,3420
2019-04-16T05:47:16.706Z,3436
2019-04-16T05:48:12.639Z,3460
2019-04-16T05:49:11.532Z,3484
2019-04-16T05:50:09.910Z,3500
2019-04-16T05:51:08.485Z,3524
2019-04-16T05:52:07.084Z,3560
2019-04-16T05:53:08.227Z,3600
2019-04-16T05:54:04.325Z,3624
2019-04-16T05:55:03.109Z,3684
2019-04-16T05:56:01.881Z,3764
2019-04-16T05:57:00.446Z,3852
2019-04-16T05:57:59.065Z,3940
2019-04-16T05:58:59.541Z,4000
2019-04-16T05:59:56.177Z,4024
2019-04-16T06:00:54.798Z,4016
2019-04-16T06:01:53.487Z,4016
2019-04-16T06:02:52.043Z,4020
2019-04-16T06:03:53.267Z,4044
2019-04-16T06:04:49.336Z,4040
2019-04-16T06:05:47.891Z,4008
2019-04-16T06:06:46.544Z,3988
2019-04-16T06:07:45.240Z,4020
2019-04-16T06:08:43.829Z,4004
2019-04-16T06:09:44.365Z,4060
2019-04-16T06:10:40.978Z,4076
2019-04-16T06:11:39.672Z,4084
2019-04-16T06:12:40.028Z,4096
2019-04-16T06:13:37.018Z,4120
2019-04-16T06:14:35.641Z,4160
2019-04-16T06:15:35.800Z,4204
2019-04-16T06:16:32.882Z,4212
2019-04-16T06:17:32.123Z,4212
2019-04-16T06:18:30.049Z,4256
2019-04-16T06:19:28.591Z,4300
2019-04-16T06:20:27.447Z,4336
2019-04-16T06:21:26.796Z,4360
2019-04-16T06:22:28.086Z,4356
2019-04-16T06:23:23.410Z,4368
2019-04-16T06:24:21.931Z,4340
2019-04-16T06:27:02.262Z,4352
2019-04-16T06:28:00.830Z,4348
2019-04-16T06:29:00.084Z,4364
2019-04-16T06:30:01.176Z,4380
2019-04-16T06:30:56.893Z,4416
2019-04-16T06:31:55.474Z,4456
2019-04-16T06:32:54.081Z,4488
2019-04-16T06:33:52.801Z,4536
2019-04-16T06:34:51.528Z,4584
2019-04-16T06:35:50.104Z,4644
2019-04-16T06:36:48.740Z,4716
2019-04-16T06:37:47.382Z,4796
2019-04-16T06:38:45.960Z,4900
2019-04-16T06:39:44.664Z,5032
2019-04-16T06:40:43.208Z,5180
2019-04-16T06:41:47.176Z,5340
2019-04-16T06:42:40.376Z,5460
2019-04-16T06:43:39.052Z,5556
2019-04-16T06:44:37.687Z,5628
2019-04-16T06:45:36.913Z,5912
2019-04-16T06:46:39.349Z,6020
2019-04-16T06:47:33.491Z,6104
2019-04-16T06:48:32.040Z,6208
2019-04-16T06:49:30.648Z,6316
2019-04-16T06:56:26.070Z,6484
2019-04-16T06:57:26.852Z,6484
2019-04-16T06:58:27.010Z,6468
2019-04-16T06:59:21.879Z,6456
2019-04-16T07:00:20.433Z,6428
2019-04-16T07:01:22.038Z,6420
2019-04-16T07:02:17.679Z,6404
2019-04-16T07:03:16.275Z,6380
2019-04-16T07:04:15.765Z,6360
2019-04-16T07:05:13.691Z,6336
2019-04-16T07:06:12.219Z,6324
2019-04-16T07:07:10.872Z,6316
2019-04-16T07:08:09.469Z,6312
2019-04-16T07:09:08.006Z,6332
2019-04-16T07:10:06.569Z,6328
2019-04-16T07:11:05.176Z,6324
2019-04-16T07:12:03.776Z,6312
2019-04-16T07:13:02.384Z,6304
2019-04-16T07:14:01.074Z,6324
2019-04-16T07:14:59.653Z,6332
2019-04-16T07:15:58.235Z,6348
2019-04-16T07:16:59.723Z,6360
2019-04-16T07:17:55.486Z,6356
2019-04-16T07:18:54.344Z,6364
2019-04-16T07:19:52.604Z,6352
2019-04-16T07:20:51.253Z,6312
2019-04-16T07:21:50.038Z,6272
2019-04-16T07:22:52.661Z,6212
2019-04-16T07:23:47.439Z,6136
2019-04-16T07:24:46.018Z,6060
2019-04-16T07:25:45.344Z,5984
2019-04-16T07:26:46.726Z,5948
2019-04-16T07:27:42.045Z,5936
2019-04-16T07:28:40.631Z,5928
2019-04-16T07:29:39.406Z,5940
2019-04-16T07:30:39.667Z,5948
2019-04-16T07:31:36.578Z,5924
2019-04-16T07:32:35.325Z,5892
2019-04-16T07:33:34.371Z,5852
2019-04-16T07:34:32.397Z,5820
2019-04-16T07:35:31.007Z,5772
2019-04-16T07:36:29.573Z,5728
2019-04-16T07:37:32.781Z,5700
2019-04-16T07:38:26.706Z,5644
2019-04-16T07:39:29.309Z,5600
2019-04-16T07:40:24.023Z,5572
2019-04-16T07:41:22.616Z,5544
2019-04-16T07:43:19.887Z,5532
2019-04-16T07:43:47.111Z,5548
2019-04-16T07:44:18.450Z,5504
2019-04-16T07:45:17.075Z,5472
2019-04-16T07:46:15.642Z,5420
2019-04-16T07:47:14.232Z,5092
2019-04-16T07:48:12.774Z,5400
2019-04-16T07:49:11.362Z,5364
2019-04-16T07:50:09.915Z,5344
2019-04-16T07:51:08.501Z,5336
2019-04-16T07:52:11.636Z,5328
2019-04-16T07:53:05.912Z,5308
2019-04-16T07:54:04.456Z,5236
2019-04-16T07:55:03.188Z,5096
2019-04-16T07:56:02.008Z,4956
2019-04-16T07:57:00.693Z,4868
2019-04-16T07:57:59.398Z,4832
2019-04-16T07:59:01.210Z,4820
2019-04-16T07:59:56.913Z,4720
2019-04-16T08:00:55.319Z,4644
2019-04-16T08:01:54.030Z,4784
2019-04-16T08:02:53.622Z,4708
2019-04-16T08:03:51.359Z,4796
2019-04-16T08:04:49.943Z,4720
2019-04-16T08:05:48.492Z,4312
2019-04-16T08:06:47.424Z,4160
2019-04-16T08:07:45.753Z,4592
2019-04-16T08:08:44.336Z,4576
2019-04-16T08:09:42.935Z,4612
2019-04-16T08:10:41.560Z,4652
2019-04-16T08:11:40.077Z,4648
2019-04-16T08:12:41.827Z,4572
2019-04-16T08:13:37.181Z,4468
2019-04-16T08:14:35.823Z,4408
2019-04-16T08:15:36.426Z,4452
2019-04-16T08:16:46.533Z,4432
2019-04-16T08:17:33.627Z,4440
2019-04-16T08:18:32.229Z,4416
2019-04-16T08:19:36.926Z,4384
2019-04-16T08:20:29.630Z,4364
2019-04-16T08:21:28.189Z,4360
2019-04-16T08:22:26.942Z,4364
2019-04-16T08:23:25.712Z,4372
2019-04-16T08:24:25.362Z,4392
2019-04-16T08:25:23.082Z,4424
2019-04-16T08:26:21.648Z,4484
2019-04-16T08:27:20.226Z,4588
2019-04-16T08:28:18.779Z,4716
2019-04-16T08:29:17.322Z,4824
2019-04-16T08:30:15.860Z,4924
2019-04-16T08:31:14.438Z,4988
2019-04-16T08:32:15.905Z,5040
2019-04-16T08:33:11.852Z,5084
2019-04-16T08:34:10.274Z,5152
2019-04-16T08:35:08.996Z,5256
2019-04-16T08:36:07.655Z,5312
2019-04-16T08:37:08.234Z,5328
2019-04-16T08:38:04.747Z,5272
2019-04-16T08:39:06.440Z,5244
2019-04-16T08:40:02.081Z,5332
2019-04-16T08:41:00.578Z,5396
2019-04-16T08:41:59.047Z,5364
2019-04-16T08:42:58.343Z,5296
2019-04-16T08:43:56.562Z,5176
2019-04-16T08:44:55.290Z,5032
2019-04-16T08:45:53.896Z,4928
2019-04-16T08:46:52.416Z,4824
2019-04-16T08:47:51.193Z,4712
2019-04-16T08:48:52.474Z,4624
2019-04-16T08:49:53.573Z,4532
2019-04-16T08:50:49.248Z,4460
2019-04-16T08:51:45.733Z,4400
2019-04-16T08:52:44.311Z,4372
2019-04-16T08:53:43.677Z,4368
2019-04-16T08:54:41.583Z,4356
2019-04-16T08:55:40.157Z,4340
2019-04-16T08:56:38.848Z,4332
2019-04-16T08:57:37.628Z,4312
2019-04-16T08:58:38.338Z,4296
2019-04-16T08:59:34.881Z,4280
2019-04-16T09:00:34.272Z,4280
2019-04-16T09:01:32.624Z,4268
2019-04-16T09:02:31.381Z,4236
2019-04-16T09:03:30.734Z,4216
2019-04-16T09:04:33.959Z,4200
2019-04-16T09:05:27.316Z,4192
2019-04-16T09:06:25.890Z,4116
2019-04-16T09:07:24.467Z,4052
2019-04-16T09:08:23.108Z,4076
2019-04-16T09:09:24.654Z,4080
2019-04-16T09:10:23.683Z,4088
2019-04-16T09:11:23.378Z,4120
2019-04-16T09:12:17.727Z,4136
2019-04-16T09:13:16.264Z,4152
2019-04-16T09:14:16.710Z,4184
2019-04-16T09:15:13.507Z,4216
2019-04-16T09:16:12.090Z,4224
2019-04-16T09:17:10.939Z,4228
2019-04-16T09:18:09.506Z,4220
2019-04-16T09:19:08.085Z,4280
2019-04-16T09:20:06.927Z,4276
2019-04-16T09:21:06.808Z,4180
2019-04-16T09:22:04.131Z,4232
2019-04-16T09:23:02.641Z,4124
2019-04-16T09:24:06.640Z,3956
2019-04-16T09:25:00.014Z,3916
2019-04-16T09:26:11.691Z,4000
2019-04-16T09:26:57.567Z,4208
2019-04-16T09:27:56.105Z,4272
2019-04-16T09:28:54.651Z,4308
2019-04-16T09:29:53.186Z,4624
2019-04-16T09:30:51.714Z,4540
2019-04-16T09:31:54.971Z,4504
2019-04-16T09:32:48.857Z,4632
2019-04-16T09:33:47.694Z,4924
2019-04-16T09:36:28.343Z,4840
2019-04-16T09:37:28.533Z,4840
2019-04-16T09:38:25.916Z,4532
2019-04-16T09:39:24.491Z,4232
2019-04-16T09:40:23.209Z,4012
2019-04-16T09:41:21.843Z,3888
2019-04-16T09:42:20.297Z,4324
2019-04-16T09:43:18.833Z,4432
2019-04-16T09:44:17.493Z,4660
2019-04-16T09:45:16.077Z,4816
2019-04-16T09:46:20.768Z,4740
2019-04-16T09:47:13.597Z,4896
2019-04-16T09:48:11.986Z,4716
2019-04-16T09:49:10.632Z,4748
2019-04-16T09:50:10.937Z,4528
2019-04-16T09:51:07.799Z,4492
2019-04-16T09:52:06.362Z,4588
2019-04-16T09:53:04.921Z,4728
2019-04-16T09:54:03.737Z,4556
2019-04-16T09:55:02.308Z,4232
2019-04-16T09:56:01.042Z,4112
2019-04-16T09:56:59.961Z,4248
2019-04-16T09:57:58.223Z,3948
2019-04-16T09:58:56.829Z,3888
2019-04-16T09:59:55.563Z,3840
2019-04-16T10:00:54.138Z,3908
2019-04-16T10:01:52.708Z,4132
2019-04-16T10:02:51.427Z,4140
2019-04-16T10:03:50.043Z,4136
2019-04-16T10:04:48.739Z,4072
2019-04-16T10:05:47.528Z,4132
2019-04-16T10:06:46.152Z,4064
2019-04-16T10:07:44.677Z,4100
2019-04-16T10:08:44.899Z,4384
2019-04-16T10:09:41.816Z,4708
2019-04-16T10:10:40.435Z,5020
2019-04-16T10:11:39.134Z,5300
2019-04-16T10:12:37.906Z,5608
2019-04-16T10:13:36.558Z,5824
2019-04-16T10:14:35.312Z,5944
2019-04-16T10:15:33.850Z,6024
2019-04-16T10:16:32.409Z,6136
2019-04-16T10:17:31.054Z,6244
2019-04-16T10:18:34.370Z,6320
2019-04-16T10:19:28.246Z,6348
2019-04-16T10:20:26.833Z,6412
2019-04-16T10:21:28.278Z,6564
2019-04-16T10:22:24.034Z,6600
2019-04-16T10:23:22.620Z,6804
2019-04-16T10:24:21.258Z,6884
2019-04-16T10:25:19.834Z,7000
2019-04-16T10:26:18.406Z,6964
2019-04-16T10:27:16.978Z,7000
2019-04-16T10:29:57.342Z,6464
2019-04-16T10:30:55.901Z,6360
2019-04-16T10:31:54.527Z,6328
2019-04-16T10:32:53.175Z,6460
2019-04-16T10:33:51.860Z,6700
2019-04-16T10:34:50.462Z,6740
2019-04-16T10:35:49.048Z,7088
2019-04-16T10:36:47.618Z,7372
2019-04-16T10:37:46.205Z,7480
2019-04-16T10:38:44.728Z,7972
2019-04-16T10:39:43.319Z,7928
2019-04-16T10:40:41.995Z,7976
2019-04-16T10:41:40.571Z,7960
2019-04-16T10:42:39.277Z,7716
2019-04-16T10:43:44.197Z,7684
2019-04-16T10:44:36.582Z,7548
2019-04-16T10:45:35.109Z,7408
2019-04-16T10:46:33.678Z,7492
2019-04-16T10:47:35.470Z,7608
2019-04-16T10:48:30.787Z,7672
2019-04-16T10:49:29.366Z,7748
2019-04-16T10:50:27.912Z,7784
2019-04-16T10:51:26.448Z,7696
2019-04-16T10:52:25.553Z,7676
2019-04-16T10:53:24.091Z,7656
2019-04-16T10:54:22.798Z,7592
2019-04-16T10:55:21.499Z,7548
2019-04-16T10:56:21.051Z,7488
2019-04-16T10:59:11.534Z,7504
2019-04-16T11:00:10.124Z,7376
2019-04-16T11:01:08.669Z,7448
2019-04-16T11:02:09.497Z,7116
2019-04-16T11:03:05.964Z,6928
2019-04-16T11:04:07.353Z,6980
2019-04-16T11:05:03.696Z,6752
2019-04-16T11:06:02.181Z,6712
2019-04-16T11:07:00.880Z,6500
2019-04-16T11:07:59.664Z,6284
2019-04-16T11:08:58.352Z,6080
2019-04-16T11:09:56.958Z,5600
2019-04-16T11:10:55.650Z,5428
2019-04-16T11:11:54.216Z,5164
2019-04-16T11:12:52.820Z,4840
2019-04-16T11:13:59.559Z,4336
2019-04-16T11:14:50.031Z,4084
2019-04-16T11:15:48.529Z,4176
2019-04-16T11:16:47.419Z,4084
2019-04-16T11:17:45.950Z,3952
2019-04-16T11:18:44.519Z,3900
2019-04-16T11:19:43.299Z,3840
2019-04-16T11:20:41.871Z,3668
2019-04-16T11:21:40.495Z,3644
2019-04-16T11:22:39.168Z,3516
2019-04-16T11:23:37.822Z,3444
2019-04-16T11:24:36.361Z,3492
2019-04-16T11:25:35.052Z,3688
2019-04-16T11:26:33.683Z,3780
2019-04-16T11:27:32.303Z,3888
2019-04-16T11:28:30.972Z,4056
2019-04-16T11:29:29.588Z,4320
2019-04-16T11:30:28.057Z,4504
2019-04-16T11:31:26.578Z,4872
2019-04-16T11:32:25.154Z,5368
2019-04-16T11:33:23.742Z,5988
2019-04-16T11:34:22.287Z,6348
2019-04-16T11:35:23.030Z,6672
2019-04-16T11:36:20.962Z,6788
2019-04-16T11:37:18.130Z,6792
2019-04-16T11:38:17.878Z,6836
2019-04-16T11:39:15.990Z,6744
2019-04-16T11:40:14.712Z,6844
2019-04-16T11:41:13.341Z,7052
2019-04-16T11:42:11.919Z,7260
2019-04-16T11:43:10.449Z,7392
2019-04-16T11:44:15.414Z,7412
2019-04-16T11:45:07.785Z,7400
2019-04-16T11:46:06.354Z,7312
2019-04-16T11:47:04.899Z,7348
2019-04-16T11:48:03.516Z,7160
2019-04-16T11:49:02.155Z,7020
2019-04-16T11:50:00.686Z,6960
2019-04-16T11:50:59.482Z,6848
2019-04-16T11:51:58.145Z,6772
2019-04-16T11:52:58.112Z,6628
2019-04-16T11:53:55.821Z,6560
2019-04-16T11:54:54.313Z,6528
2019-04-16T11:55:53.090Z,6508
2019-04-16T11:56:51.862Z,6576
2019-04-16T11:57:50.439Z,6644
2019-04-16T11:58:48.997Z,6860
2019-04-16T11:59:47.598Z,7092
2019-04-16T12:00:46.207Z,7136
2019-04-16T12:01:44.779Z,7356
2019-04-16T12:02:43.454Z,7092
2019-04-16T12:03:42.025Z,7268
2019-04-16T12:04:40.686Z,7376
2019-04-16T12:05:39.556Z,6944
2019-04-16T12:06:38.093Z,6880
2019-04-16T12:07:36.658Z,6828
2019-04-16T12:08:35.220Z,6492
2019-04-16T12:09:33.937Z,6372
2019-04-16T12:10:32.505Z,6532
2019-04-16T12:11:31.075Z,6492
2019-04-16T12:12:29.741Z,6688
2019-04-16T12:13:28.276Z,6564
2019-04-16T12:14:30.938Z,6820
2019-04-16T12:15:25.747Z,6852
2019-04-16T12:16:25.327Z,6588
2019-04-16T12:17:22.794Z,6492
2019-04-16T12:18:21.363Z,5916
2019-04-16T12:19:19.982Z,5876
2019-04-16T12:20:18.501Z,5676
2019-04-16T12:21:17.464Z,5844
2019-04-16T12:22:16.135Z,6132
2019-04-16T12:23:14.723Z,6268
2019-04-16T12:24:13.400Z,6416
2019-04-16T12:25:11.975Z,6500
2019-04-16T12:26:10.547Z,6456
2019-04-16T12:27:09.279Z,6332
2019-04-16T12:28:11.530Z,6200
2019-04-16T12:29:06.389Z,6128
2019-04-16T12:30:05.032Z,6408
2019-04-16T12:31:03.821Z,6008
2019-04-16T12:32:03.917Z,6060
2019-04-16T12:33:00.968Z,5876
2019-04-16T12:33:59.536Z,5720
2019-04-16T12:34:58.102Z,5516
2019-04-16T12:35:56.625Z,5392
2019-04-16T12:36:55.169Z,5340
2019-04-16T12:37:53.877Z,5256
2019-04-16T12:38:52.492Z,5084
2019-04-16T12:39:51.102Z,5052
2019-04-16T12:40:49.755Z,4972
2019-04-16T12:41:48.243Z,4800
2019-04-16T12:42:46.878Z,4600
2019-04-16T12:43:50.711Z,4340
2019-04-16T12:44:45.828Z,4144
2019-04-16T12:45:42.714Z,3888
2019-04-16T12:46:41.276Z,3548
2019-04-16T12:47:39.957Z,3244
2019-04-16T12:48:38.467Z,3036
2019-04-16T12:49:37.146Z,2900
2019-04-16T12:50:35.872Z,2784
2019-04-16T12:51:39.594Z,2644
2019-04-16T12:52:33.287Z,2556
2019-04-16T12:53:31.862Z,2580
2019-04-16T12:54:30.464Z,2732
2019-04-16T12:55:31.680Z,2976
2019-04-16T12:59:07.906Z,4112
2019-04-16T13:00:06.522Z,4076
2019-04-16T13:01:05.300Z,4040
2019-04-16T13:02:03.873Z,3860
2019-04-16T13:03:02.511Z,3588
2019-04-16T13:04:01.184Z,3272
2019-04-16T13:04:59.536Z,3044
2019-04-16T13:06:01.364Z,3012
2019-04-16T13:06:56.672Z,2908
2019-04-16T13:11:09.182Z,2476
2019-04-16T13:12:09.340Z,2640
2019-04-16T13:13:06.201Z,2856
2019-04-16T13:14:04.803Z,3096
2019-04-16T13:15:03.387Z,3360
2019-04-16T13:16:02.030Z,3508
2019-04-16T13:17:00.660Z,3476
2019-04-16T13:17:59.280Z,3368
2019-04-16T13:27:44.445Z,2568
2019-04-16T13:28:43.097Z,2920
2019-04-16T13:29:41.712Z,3512
2019-04-16T13:30:40.301Z,3988
2019-04-16T13:31:39.647Z,4204
2019-04-16T13:32:37.714Z,4172
2019-04-16T13:33:36.262Z,3884
2019-04-16T13:34:34.856Z,3692
2019-04-16T13:35:33.430Z,3648
2019-04-16T13:36:31.947Z,3600
2019-04-16T13:37:36.667Z,3564
2019-04-16T13:38:29.130Z,3592
2019-04-16T13:39:27.719Z,3676
2019-04-16T13:40:26.406Z,3696
2019-04-16T13:41:26.960Z,3688
2019-04-16T13:42:23.667Z,3748
2019-04-16T13:43:22.263Z,3620
2019-04-16T13:44:20.879Z,3368
2019-04-16T13:45:25.497Z,3124
2019-04-16T13:46:18.166Z,3160
2019-04-16T13:47:16.819Z,2896
2019-04-16T13:48:17.660Z,2888
2019-04-16T13:49:14.051Z,2896
2019-04-16T13:50:12.581Z,3216
2019-04-16T13:51:14.015Z,3152
2019-04-16T13:52:09.839Z,3756
2019-04-16T13:53:08.457Z,4080
2019-04-16T13:54:07.132Z,4520
2019-04-16T13:55:09.458Z,5100
2019-04-16T13:56:04.380Z,5540
2019-04-16T13:57:03.128Z,6160
2019-04-16T13:58:01.714Z,6076
2019-04-16T13:59:00.609Z,5800
2019-04-16T14:00:02.696Z,5624
2019-04-16T14:00:57.457Z,5560
2019-04-16T14:01:58.811Z,5356
2019-04-16T14:02:54.587Z,5288
2019-04-16T14:03:56.054Z,5360
2019-04-16T14:04:52.118Z,5116
2019-04-16T14:05:50.705Z,4844
2019-04-16T14:06:49.554Z,4572
2019-04-16T14:07:48.101Z,4456
2019-04-16T14:08:46.659Z,4332
2019-04-16T14:09:45.453Z,4288
2019-04-16T14:10:44.116Z,4268
2019-04-16T14:11:42.648Z,4120
2019-04-16T14:12:42.613Z,3928
2019-04-16T14:13:41.925Z,3712
2019-04-16T14:14:38.605Z,3504
2019-04-16T14:15:40.044Z,3336
2019-04-16T14:16:35.936Z,3200
2019-04-16T14:17:35.096Z,3116
2019-04-16T14:18:33.397Z,3076
2019-04-16T14:19:34.697Z,3064